sensor_id;sensor_type;location;lat;lon;timestamp;P1;durP1;ratioP1;P2;durP2;ratioP2
9392;SDS011;4736;52.508;13.422;2023-03-01T00:00:21;12.50;;;11.20;;
9392;SDS011;4736;52.508;13.422;2023-03-01T00:03:24;13.03;;;11.67;;
9392;SDS011;4736;52.508;13.422;2023-03-01T00:06:28;15.53;;;12.83;;
9392;SDS011;4736;52.508;13.422;2023-03-01T00:09:32;13.87;;;11.97;;
9392;SDS011;4736;52.508;13.422;2023-03-01T00:12:35;12.80;;;11.50;;
9392;SDS011;4736;52.508;13.422;2023-03-01T00:15:38;13.50;;;12.20;;
9392;SDS011;4736;52.508;13.422;2023-03-01T00:18:42;12.93;;;11.73;;
9392;SDS011;4736;52.508;13.422;2023-03-01T00:21:47;17.43;;;13.40;;
9392;SDS011;4736;52.508;13.422;2023-03-01T00:24:55;14.37;;;12.90;;
9392;SDS011;4736;52.508;13.422;2023-03-01T00:27:58;13.90;;;12.47;;
9392;SDS011;4736;52.508;13.422;2023-03-01T00:31:02;12.87;;;11.63;;
9392;SDS011;4736;52.508;13.422;2023-03-01T00:34:06;12.77;;;11.53;;
9392;SDS011;4736;52.508;13.422;2023-03-01T00:37:10;12.47;;;11.23;;
9392;SDS011;4736;52.508;13.422;2023-03-01T00:40:14;15.73;;;12.93;;
9392;SDS011;4736;52.508;13.422;2023-03-01T00:43:17;15.53;;;13.07;;
9392;SDS011;4736;52.508;13.422;2023-03-01T00:46:21;17.70;;;12.43;;
9392;SDS011;4736;52.508;13.422;2023-03-01T00:49:25;14.13;;;11.87;;
9392;SDS011;4736;52.508;13.422;2023-03-01T00:52:30;15.93;;;12.17;;
9392;SDS011;4736;52.508;13.422;2023-03-01T00:55:33;14.23;;;11.80;;
9392;SDS011;4736;52.508;13.422;2023-03-01T00:58:38;14.63;;;11.47;;
9392;SDS011;4736;52.508;13.422;2023-03-01T01:01:42;13.90;;;12.43;;
9392;SDS011;4736;52.508;13.422;2023-03-01T01:04:45;13.50;;;12.07;;
9392;SDS011;4736;52.508;13.422;2023-03-01T01:07:49;16.73;;;13.47;;
9392;SDS011;4736;52.508;13.422;2023-03-01T01:10:52;13.47;;;12.13;;
9392;SDS011;4736;52.508;13.422;2023-03-01T01:13:56;16.50;;;13.30;;
9392;SDS011;4736;52.508;13.422;2023-03-01T01:17:00;13.90;;;11.50;;
9392;SDS011;4736;52.508;13.422;2023-03-01T01:20:03;12.87;;;11.60;;
9392;SDS011;4736;52.508;13.422;2023-03-01T01:23:08;15.23;;;13.03;;
9392;SDS011;4736;52.508;13.422;2023-03-01T01:26:12;13.80;;;11.93;;
9392;SDS011;4736;52.508;13.422;2023-03-01T01:29:16;12.83;;;11.53;;
9392;SDS011;4736;52.508;13.422;2023-03-01T01:32:19;15.90;;;12.70;;
9392;SDS011;4736;52.508;13.422;2023-03-01T01:35:23;16.17;;;12.20;;
9392;SDS011;4736;52.508;13.422;2023-03-01T01:38:27;12.80;;;11.60;;
9392;SDS011;4736;52.508;13.422;2023-03-01T01:41:30;12.53;;;11.33;;
9392;SDS011;4736;52.508;13.422;2023-03-01T01:44:34;12.73;;;11.43;;
9392;SDS011;4736;52.508;13.422;2023-03-01T01:47:37;12.47;;;11.17;;
9392;SDS011;4736;52.508;13.422;2023-03-01T01:50:40;12.87;;;11.50;;
9392;SDS011;4736;52.508;13.422;2023-03-01T01:53:47;13.60;;;12.20;;
9392;SDS011;4736;52.508;13.422;2023-03-01T01:56:54;14.33;;;12.17;;
9392;SDS011;4736;52.508;13.422;2023-03-01T02:00:05;12.17;;;11.03;;
9392;SDS011;4736;52.508;13.422;2023-03-01T02:03:12;15.17;;;12.07;;
9392;SDS011;4736;52.508;13.422;2023-03-01T02:06:20;15.33;;;11.73;;
9392;SDS011;4736;52.508;13.422;2023-03-01T02:09:32;13.57;;;12.13;;
9392;SDS011;4736;52.508;13.422;2023-03-01T02:12:35;12.20;;;10.90;;
9392;SDS011;4736;52.508;13.422;2023-03-01T02:15:40;12.87;;;11.57;;
9392;SDS011;4736;52.508;13.422;2023-03-01T02:18:45;15.10;;;12.73;;
9392;SDS011;4736;52.508;13.422;2023-03-01T02:21:50;14.43;;;13.03;;
9392;SDS011;4736;52.508;13.422;2023-03-01T02:25:06;13.73;;;11.27;;
9392;SDS011;4736;52.508;13.422;2023-03-01T02:28:23;14.83;;;12.63;;
9392;SDS011;4736;52.508;13.422;2023-03-01T02:31:28;14.07;;;12.40;;
9392;SDS011;4736;52.508;13.422;2023-03-01T02:34:46;13.07;;;11.80;;
9392;SDS011;4736;52.508;13.422;2023-03-01T02:37:49;13.13;;;11.40;;
9392;SDS011;4736;52.508;13.422;2023-03-01T02:40:52;15.07;;;12.30;;
9392;SDS011;4736;52.508;13.422;2023-03-01T02:44:00;12.73;;;11.50;;
9392;SDS011;4736;52.508;13.422;2023-03-01T02:47:04;12.20;;;11.20;;
9392;SDS011;4736;52.508;13.422;2023-03-01T02:50:18;14.10;;;12.17;;
9392;SDS011;4736;52.508;13.422;2023-03-01T02:53:31;12.17;;;11.00;;
9392;SDS011;4736;52.508;13.422;2023-03-01T02:56:41;14.20;;;12.10;;
9392;SDS011;4736;52.508;13.422;2023-03-01T02:59:50;11.73;;;10.53;;
9392;SDS011;4736;52.508;13.422;2023-03-01T03:02:56;13.47;;;11.43;;
9392;SDS011;4736;52.508;13.422;2023-03-01T03:05:59;12.97;;;11.37;;
9392;SDS011;4736;52.508;13.422;2023-03-01T03:09:02;16.50;;;12.37;;
9392;SDS011;4736;52.508;13.422;2023-03-01T03:12:06;15.60;;;12.30;;
9392;SDS011;4736;52.508;13.422;2023-03-01T03:15:11;13.80;;;12.40;;
9392;SDS011;4736;52.508;13.422;2023-03-01T03:18:15;16.37;;;13.40;;
9392;SDS011;4736;52.508;13.422;2023-03-01T03:21:20;14.30;;;11.73;;
9392;SDS011;4736;52.508;13.422;2023-03-01T03:24:22;14.63;;;11.50;;
9392;SDS011;4736;52.508;13.422;2023-03-01T03:27:25;12.43;;;11.33;;
9392;SDS011;4736;52.508;13.422;2023-03-01T03:30:31;12.70;;;11.40;;
9392;SDS011;4736;52.508;13.422;2023-03-01T03:33:34;13.13;;;11.73;;
9392;SDS011;4736;52.508;13.422;2023-03-01T03:36:37;13.33;;;12.03;;
9392;SDS011;4736;52.508;13.422;2023-03-01T03:39:40;12.50;;;11.20;;
9392;SDS011;4736;52.508;13.422;2023-03-01T03:42:44;13.33;;;11.60;;
9392;SDS011;4736;52.508;13.422;2023-03-01T03:45:49;12.90;;;11.60;;
9392;SDS011;4736;52.508;13.422;2023-03-01T03:48:53;13.03;;;11.73;;
9392;SDS011;4736;52.508;13.422;2023-03-01T03:51:56;15.00;;;12.53;;
9392;SDS011;4736;52.508;13.422;2023-03-01T03:54:59;13.00;;;11.67;;
9392;SDS011;4736;52.508;13.422;2023-03-01T03:58:02;15.60;;;13.80;;
9392;SDS011;4736;52.508;13.422;2023-03-01T04:01:09;14.43;;;12.80;;
9392;SDS011;4736;52.508;13.422;2023-03-01T04:04:12;13.67;;;12.27;;
9392;SDS011;4736;52.508;13.422;2023-03-01T04:07:19;15.63;;;12.80;;
9392;SDS011;4736;52.508;13.422;2023-03-01T04:10:22;19.17;;;14.73;;
9392;SDS011;4736;52.508;13.422;2023-03-01T04:13:25;16.10;;;14.10;;
9392;SDS011;4736;52.508;13.422;2023-03-01T04:16:29;15.67;;;13.23;;
9392;SDS011;4736;52.508;13.422;2023-03-01T04:19:34;16.53;;;14.33;;
9392;SDS011;4736;52.508;13.422;2023-03-01T04:22:37;18.57;;;13.83;;
9392;SDS011;4736;52.508;13.422;2023-03-01T04:25:42;17.13;;;14.97;;
9392;SDS011;4736;52.508;13.422;2023-03-01T04:28:47;18.03;;;14.73;;
9392;SDS011;4736;52.508;13.422;2023-03-01T04:31:54;17.83;;;13.73;;
9392;SDS011;4736;52.508;13.422;2023-03-01T04:34:57;16.23;;;13.20;;
9392;SDS011;4736;52.508;13.422;2023-03-01T04:38:01;17.93;;;14.50;;
9392;SDS011;4736;52.508;13.422;2023-03-01T04:41:04;19.00;;;15.07;;
9392;SDS011;4736;52.508;13.422;2023-03-01T04:44:08;17.80;;;13.80;;
9392;SDS011;4736;52.508;13.422;2023-03-01T04:47:12;17.27;;;14.47;;
9392;SDS011;4736;52.508;13.422;2023-03-01T04:50:16;20.73;;;14.87;;
9392;SDS011;4736;52.508;13.422;2023-03-01T04:53:21;18.63;;;15.30;;
9392;SDS011;4736;52.508;13.422;2023-03-01T04:56:24;19.60;;;14.57;;
9392;SDS011;4736;52.508;13.422;2023-03-01T04:59:27;22.87;;;16.00;;
9392;SDS011;4736;52.508;13.422;2023-03-01T05:02:32;19.47;;;14.63;;
9392;SDS011;4736;52.508;13.422;2023-03-01T05:05:35;18.60;;;14.13;;
9392;SDS011;4736;52.508;13.422;2023-03-01T05:08:40;16.87;;;14.63;;
9392;SDS011;4736;52.508;13.422;2023-03-01T05:11:46;16.13;;;14.20;;
9392;SDS011;4736;52.508;13.422;2023-03-01T05:14:49;21.53;;;15.43;;
9392;SDS011;4736;52.508;13.422;2023-03-01T05:17:54;22.23;;;16.37;;
9392;SDS011;4736;52.508;13.422;2023-03-01T05:21:02;20.83;;;16.60;;
9392;SDS011;4736;52.508;13.422;2023-03-01T05:24:06;22.03;;;16.17;;
9392;SDS011;4736;52.508;13.422;2023-03-01T05:27:12;16.77;;;14.57;;
9392;SDS011;4736;52.508;13.422;2023-03-01T05:30:16;19.13;;;15.83;;
9392;SDS011;4736;52.508;13.422;2023-03-01T05:33:21;21.80;;;18.00;;
9392;SDS011;4736;52.508;13.422;2023-03-01T05:36:24;18.37;;;15.40;;
9392;SDS011;4736;52.508;13.422;2023-03-01T05:39:28;23.83;;;17.63;;
9392;SDS011;4736;52.508;13.422;2023-03-01T05:42:32;24.37;;;17.67;;
9392;SDS011;4736;52.508;13.422;2023-03-01T05:45:36;22.57;;;16.57;;
9392;SDS011;4736;52.508;13.422;2023-03-01T05:48:41;20.80;;;15.53;;
9392;SDS011;4736;52.508;13.422;2023-03-01T05:51:47;20.60;;;16.83;;
9392;SDS011;4736;52.508;13.422;2023-03-01T05:54:51;23.90;;;17.97;;
9392;SDS011;4736;52.508;13.422;2023-03-01T05:57:54;22.60;;;18.20;;
9392;SDS011;4736;52.508;13.422;2023-03-01T06:00:57;20.10;;;16.27;;
9392;SDS011;4736;52.508;13.422;2023-03-01T06:04:03;22.70;;;16.17;;
9392;SDS011;4736;52.508;13.422;2023-03-01T06:07:06;20.03;;;17.17;;
9392;SDS011;4736;52.508;13.422;2023-03-01T06:10:10;20.37;;;17.17;;
9392;SDS011;4736;52.508;13.422;2023-03-01T06:13:14;19.50;;;16.67;;
9392;SDS011;4736;52.508;13.422;2023-03-01T06:16:17;19.50;;;16.77;;
9392;SDS011;4736;52.508;13.422;2023-03-01T06:19:22;24.13;;;17.53;;
9392;SDS011;4736;52.508;13.422;2023-03-01T06:22:24;25.23;;;18.67;;
9392;SDS011;4736;52.508;13.422;2023-03-01T06:25:27;22.77;;;18.13;;
9392;SDS011;4736;52.508;13.422;2023-03-01T06:28:30;22.57;;;16.90;;
9392;SDS011;4736;52.508;13.422;2023-03-01T06:31:33;26.27;;;18.47;;
9392;SDS011;4736;52.508;13.422;2023-03-01T06:34:38;23.07;;;18.00;;
9392;SDS011;4736;52.508;13.422;2023-03-01T06:37:41;25.87;;;20.13;;
9392;SDS011;4736;52.508;13.422;2023-03-01T06:40:44;23.97;;;18.93;;
9392;SDS011;4736;52.508;13.422;2023-03-01T06:43:53;27.83;;;19.73;;
9392;SDS011;4736;52.508;13.422;2023-03-01T06:46:56;25.50;;;20.00;;
9392;SDS011;4736;52.508;13.422;2023-03-01T06:50:01;26.00;;;20.23;;
9392;SDS011;4736;52.508;13.422;2023-03-01T06:53:05;28.30;;;19.97;;
9392;SDS011;4736;52.508;13.422;2023-03-01T06:56:08;29.37;;;19.13;;
9392;SDS011;4736;52.508;13.422;2023-03-01T06:59:12;24.27;;;18.77;;
9392;SDS011;4736;52.508;13.422;2023-03-01T07:02:15;25.10;;;18.43;;
9392;SDS011;4736;52.508;13.422;2023-03-01T07:05:20;25.70;;;18.67;;
9392;SDS011;4736;52.508;13.422;2023-03-01T07:08:23;21.73;;;17.90;;
9392;SDS011;4736;52.508;13.422;2023-03-01T07:11:26;23.57;;;18.00;;
9392;SDS011;4736;52.508;13.422;2023-03-01T07:14:29;23.13;;;18.63;;
9392;SDS011;4736;52.508;13.422;2023-03-01T07:17:32;23.53;;;17.53;;
9392;SDS011;4736;52.508;13.422;2023-03-01T07:20:36;24.50;;;19.00;;
9392;SDS011;4736;52.508;13.422;2023-03-01T07:23:39;26.70;;;20.37;;
9392;SDS011;4736;52.508;13.422;2023-03-01T07:26:42;24.33;;;18.57;;
9392;SDS011;4736;52.508;13.422;2023-03-01T07:29:45;21.33;;;17.10;;
9392;SDS011;4736;52.508;13.422;2023-03-01T07:32:48;21.73;;;18.10;;
9392;SDS011;4736;52.508;13.422;2023-03-01T07:35:57;23.30;;;18.37;;
9392;SDS011;4736;52.508;13.422;2023-03-01T07:39:00;21.70;;;17.13;;
9392;SDS011;4736;52.508;13.422;2023-03-01T07:42:04;21.53;;;17.07;;
9392;SDS011;4736;52.508;13.422;2023-03-01T07:45:07;17.80;;;15.90;;
9392;SDS011;4736;52.508;13.422;2023-03-01T07:48:11;19.53;;;16.40;;
9392;SDS011;4736;52.508;13.422;2023-03-01T07:51:15;25.50;;;17.37;;
9392;SDS011;4736;52.508;13.422;2023-03-01T07:54:21;20.00;;;16.37;;
9392;SDS011;4736;52.508;13.422;2023-03-01T07:57:24;22.17;;;17.47;;
9392;SDS011;4736;52.508;13.422;2023-03-01T08:00:27;19.40;;;15.87;;
9392;SDS011;4736;52.508;13.422;2023-03-01T08:03:31;19.53;;;15.47;;
9392;SDS011;4736;52.508;13.422;2023-03-01T08:06:36;18.43;;;16.10;;
9392;SDS011;4736;52.508;13.422;2023-03-01T08:09:39;21.83;;;16.53;;
9392;SDS011;4736;52.508;13.422;2023-03-01T08:12:42;16.47;;;14.87;;
9392;SDS011;4736;52.508;13.422;2023-03-01T08:15:45;18.97;;;15.40;;
9392;SDS011;4736;52.508;13.422;2023-03-01T08:18:47;22.77;;;16.63;;
9392;SDS011;4736;52.508;13.422;2023-03-01T08:21:52;18.80;;;16.53;;
9392;SDS011;4736;52.508;13.422;2023-03-01T08:24:55;19.70;;;17.43;;
9392;SDS011;4736;52.508;13.422;2023-03-01T08:27:58;22.47;;;17.50;;
9392;SDS011;4736;52.508;13.422;2023-03-01T08:31:01;19.03;;;16.50;;
9392;SDS011;4736;52.508;13.422;2023-03-01T08:34:06;21.23;;;15.77;;
9392;SDS011;4736;52.508;13.422;2023-03-01T08:37:12;17.37;;;15.50;;
9392;SDS011;4736;52.508;13.422;2023-03-01T08:40:15;14.20;;;12.60;;
9392;SDS011;4736;52.508;13.422;2023-03-01T08:43:18;13.37;;;10.17;;
9392;SDS011;4736;52.508;13.422;2023-03-01T08:46:23;11.30;;;10.20;;
9392;SDS011;4736;52.508;13.422;2023-03-01T08:49:26;13.93;;;10.30;;
9392;SDS011;4736;52.508;13.422;2023-03-01T08:52:30;10.90;;;9.80;;
9392;SDS011;4736;52.508;13.422;2023-03-01T08:55:35;12.40;;;10.83;;
9392;SDS011;4736;52.508;13.422;2023-03-01T08:58:38;14.63;;;10.00;;
9392;SDS011;4736;52.508;13.422;2023-03-01T09:01:41;12.03;;;10.03;;
9392;SDS011;4736;52.508;13.422;2023-03-01T09:04:45;11.67;;;10.47;;
9392;SDS011;4736;52.508;13.422;2023-03-01T09:07:50;15.70;;;11.40;;
9392;SDS011;4736;52.508;13.422;2023-03-01T09:10:53;12.30;;;11.00;;
9392;SDS011;4736;52.508;13.422;2023-03-01T09:13:56;10.60;;;9.67;;
9392;SDS011;4736;52.508;13.422;2023-03-01T09:17:00;11.63;;;10.13;;
9392;SDS011;4736;52.508;13.422;2023-03-01T09:20:04;11.63;;;10.53;;
9392;SDS011;4736;52.508;13.422;2023-03-01T09:23:09;11.03;;;9.93;;
9392;SDS011;4736;52.508;13.422;2023-03-01T09:26:13;9.80;;;8.90;;
9392;SDS011;4736;52.508;13.422;2023-03-01T09:29:17;9.13;;;8.40;;
9392;SDS011;4736;52.508;13.422;2023-03-01T09:32:20;9.30;;;8.60;;
9392;SDS011;4736;52.508;13.422;2023-03-01T09:35:23;9.57;;;8.67;;
9392;SDS011;4736;52.508;13.422;2023-03-01T09:38:28;7.67;;;7.13;;
9392;SDS011;4736;52.508;13.422;2023-03-01T09:45:02;6.67;;;6.20;;
9392;SDS011;4736;52.508;13.422;2023-03-01T09:48:09;6.80;;;6.30;;
9392;SDS011;4736;52.508;13.422;2023-03-01T09:51:19;9.63;;;8.17;;
9392;SDS011;4736;52.508;13.422;2023-03-01T09:54:28;8.40;;;7.70;;
9392;SDS011;4736;52.508;13.422;2023-03-01T09:57:33;7.93;;;7.27;;
9392;SDS011;4736;52.508;13.422;2023-03-01T10:00:43;8.30;;;7.60;;
9392;SDS011;4736;52.508;13.422;2023-03-01T10:03:54;8.87;;;7.90;;
9392;SDS011;4736;52.508;13.422;2023-03-01T10:07:13;8.27;;;7.40;;
9392;SDS011;4736;52.508;13.422;2023-03-01T10:10:28;7.17;;;6.77;;
9392;SDS011;4736;52.508;13.422;2023-03-01T10:13:37;7.73;;;7.13;;
9392;SDS011;4736;52.508;13.422;2023-03-01T10:16:51;8.00;;;7.30;;
9392;SDS011;4736;52.508;13.422;2023-03-01T10:20:10;7.90;;;7.37;;
9392;SDS011;4736;52.508;13.422;2023-03-01T10:23:19;7.60;;;6.63;;
9392;SDS011;4736;52.508;13.422;2023-03-01T10:26:36;7.20;;;6.80;;
9392;SDS011;4736;52.508;13.422;2023-03-01T10:29:49;7.33;;;6.63;;
9392;SDS011;4736;52.508;13.422;2023-03-01T10:32:58;7.30;;;6.80;;
9392;SDS011;4736;52.508;13.422;2023-03-01T10:36:04;7.33;;;6.83;;
9392;SDS011;4736;52.508;13.422;2023-03-01T10:39:12;7.97;;;7.17;;
9392;SDS011;4736;52.508;13.422;2023-03-01T10:42:22;7.00;;;6.50;;
9392;SDS011;4736;52.508;13.422;2023-03-01T10:45:33;6.80;;;6.30;;
9392;SDS011;4736;52.508;13.422;2023-03-01T10:48:38;7.20;;;6.50;;
9392;SDS011;4736;52.508;13.422;2023-03-01T10:51:41;6.37;;;5.73;;
9392;SDS011;4736;52.508;13.422;2023-03-01T10:54:50;8.87;;;6.20;;
9392;SDS011;4736;52.508;13.422;2023-03-01T10:58:16;5.90;;;5.60;;
9392;SDS011;4736;52.508;13.422;2023-03-01T11:01:25;7.40;;;6.40;;
9392;SDS011;4736;52.508;13.422;2023-03-01T11:04:30;6.20;;;5.80;;
9392;SDS011;4736;52.508;13.422;2023-03-01T11:07:35;6.60;;;5.80;;
9392;SDS011;4736;52.508;13.422;2023-03-01T11:10:49;6.10;;;5.60;;
9392;SDS011;4736;52.508;13.422;2023-03-01T11:13:55;5.37;;;4.97;;
9392;SDS011;4736;52.508;13.422;2023-03-01T11:17:00;6.17;;;5.37;;
9392;SDS011;4736;52.508;13.422;2023-03-01T11:20:23;5.43;;;5.07;;
9392;SDS011;4736;52.508;13.422;2023-03-01T11:23:30;5.70;;;5.30;;
9392;SDS011;4736;52.508;13.422;2023-03-01T11:26:36;5.33;;;5.00;;
9392;SDS011;4736;52.508;13.422;2023-03-01T11:29:44;6.03;;;5.70;;
9392;SDS011;4736;52.508;13.422;2023-03-01T11:32:54;6.20;;;5.60;;
9392;SDS011;4736;52.508;13.422;2023-03-01T11:36:10;5.63;;;4.87;;
9392;SDS011;4736;52.508;13.422;2023-03-01T11:39:23;5.37;;;5.07;;
9392;SDS011;4736;52.508;13.422;2023-03-01T11:42:40;4.27;;;3.97;;
9392;SDS011;4736;52.508;13.422;2023-03-01T11:45:54;3.87;;;3.77;;
9392;SDS011;4736;52.508;13.422;2023-03-01T11:49:22;4.60;;;4.33;;
9392;SDS011;4736;52.508;13.422;2023-03-01T11:52:46;5.50;;;4.63;;
9392;SDS011;4736;52.508;13.422;2023-03-01T11:56:03;3.97;;;3.83;;
9392;SDS011;4736;52.508;13.422;2023-03-01T11:59:29;4.43;;;4.20;;
9392;SDS011;4736;52.508;13.422;2023-03-01T12:03:04;4.70;;;4.40;;
9392;SDS011;4736;52.508;13.422;2023-03-01T12:06:32;4.77;;;4.47;;
9392;SDS011;4736;52.508;13.422;2023-03-01T12:09:57;5.40;;;4.87;;
9392;SDS011;4736;52.508;13.422;2023-03-01T12:13:40;4.80;;;4.50;;
9392;SDS011;4736;52.508;13.422;2023-03-01T12:17:07;4.80;;;4.30;;
9392;SDS011;4736;52.508;13.422;2023-03-01T12:20:27;4.37;;;4.20;;
9392;SDS011;4736;52.508;13.422;2023-03-01T12:23:42;5.03;;;4.67;;
9392;SDS011;4736;52.508;13.422;2023-03-01T12:27:06;4.50;;;4.30;;
9392;SDS011;4736;52.508;13.422;2023-03-01T12:30:24;4.53;;;4.37;;
9392;SDS011;4736;52.508;13.422;2023-03-01T12:33:38;4.20;;;4.00;;
9392;SDS011;4736;52.508;13.422;2023-03-01T12:36:54;4.57;;;4.37;;
9392;SDS011;4736;52.508;13.422;2023-03-01T12:40:17;4.20;;;3.83;;
9392;SDS011;4736;52.508;13.422;2023-03-01T12:43:35;4.07;;;3.87;;
9392;SDS011;4736;52.508;13.422;2023-03-01T12:46:50;4.90;;;4.40;;
9392;SDS011;4736;52.508;13.422;2023-03-01T12:50:04;4.43;;;4.27;;
9392;SDS011;4736;52.508;13.422;2023-03-01T12:53:19;3.70;;;3.50;;
9392;SDS011;4736;52.508;13.422;2023-03-01T12:56:27;4.60;;;4.20;;
9392;SDS011;4736;52.508;13.422;2023-03-01T12:59:34;4.60;;;4.30;;
9392;SDS011;4736;52.508;13.422;2023-03-01T13:02:44;4.20;;;4.00;;
9392;SDS011;4736;52.508;13.422;2023-03-01T13:05:56;4.47;;;4.07;;
9392;SDS011;4736;52.508;13.422;2023-03-01T13:09:13;4.90;;;4.50;;
9392;SDS011;4736;52.508;13.422;2023-03-01T13:15:54;4.30;;;4.20;;
9392;SDS011;4736;52.508;13.422;2023-03-01T13:19:05;4.67;;;4.47;;
9392;SDS011;4736;52.508;13.422;2023-03-01T13:22:28;4.27;;;4.17;;
9392;SDS011;4736;52.508;13.422;2023-03-01T13:25:36;4.93;;;4.53;;
9392;SDS011;4736;52.508;13.422;2023-03-01T13:29:10;4.40;;;4.10;;
9392;SDS011;4736;52.508;13.422;2023-03-01T13:32:29;4.37;;;4.07;;
9392;SDS011;4736;52.508;13.422;2023-03-01T13:35:45;4.13;;;3.93;;
9392;SDS011;4736;52.508;13.422;2023-03-01T13:38:48;3.93;;;3.80;;
9392;SDS011;4736;52.508;13.422;2023-03-01T13:41:59;3.83;;;3.73;;
9392;SDS011;4736;52.508;13.422;2023-03-01T13:48:39;7.30;;;4.63;;
9392;SDS011;4736;52.508;13.422;2023-03-01T13:51:42;5.47;;;4.93;;
9392;SDS011;4736;52.508;13.422;2023-03-01T13:54:49;4.23;;;4.07;;
9392;SDS011;4736;52.508;13.422;2023-03-01T13:57:53;4.23;;;4.03;;
9392;SDS011;4736;52.508;13.422;2023-03-01T14:01:01;4.30;;;4.20;;
9392;SDS011;4736;52.508;13.422;2023-03-01T14:04:18;4.57;;;4.30;;
9392;SDS011;4736;52.508;13.422;2023-03-01T14:07:24;4.93;;;4.57;;
9392;SDS011;4736;52.508;13.422;2023-03-01T14:10:32;4.73;;;4.53;;
9392;SDS011;4736;52.508;13.422;2023-03-01T14:13:57;4.40;;;4.10;;
9392;SDS011;4736;52.508;13.422;2023-03-01T14:20:58;5.43;;;4.93;;
9392;SDS011;4736;52.508;13.422;2023-03-01T14:24:02;4.33;;;4.23;;
9392;SDS011;4736;52.508;13.422;2023-03-01T14:27:09;5.33;;;4.83;;
9392;SDS011;4736;52.508;13.422;2023-03-01T14:30:14;4.77;;;4.47;;
9392;SDS011;4736;52.508;13.422;2023-03-01T14:33:23;4.27;;;4.07;;
9392;SDS011;4736;52.508;13.422;2023-03-01T14:36:28;4.50;;;4.30;;
9392;SDS011;4736;52.508;13.422;2023-03-01T14:39:33;5.20;;;4.50;;
9392;SDS011;4736;52.508;13.422;2023-03-01T14:42:36;4.43;;;4.13;;
9392;SDS011;4736;52.508;13.422;2023-03-01T14:45:42;6.73;;;3.97;;
9392;SDS011;4736;52.508;13.422;2023-03-01T14:48:50;4.00;;;3.70;;
9392;SDS011;4736;52.508;13.422;2023-03-01T14:51:57;4.70;;;4.30;;
9392;SDS011;4736;52.508;13.422;2023-03-01T14:55:05;4.63;;;4.43;;
9392;SDS011;4736;52.508;13.422;2023-03-01T14:58:11;4.83;;;4.60;;
9392;SDS011;4736;52.508;13.422;2023-03-01T15:01:17;4.43;;;4.20;;
9392;SDS011;4736;52.508;13.422;2023-03-01T15:04:21;5.07;;;4.63;;
9392;SDS011;4736;52.508;13.422;2023-03-01T15:07:28;3.93;;;3.83;;
9392;SDS011;4736;52.508;13.422;2023-03-01T15:10:35;4.20;;;4.10;;
9392;SDS011;4736;52.508;13.422;2023-03-01T15:13:40;5.00;;;4.50;;
9392;SDS011;4736;52.508;13.422;2023-03-01T15:16:44;4.70;;;4.47;;
9392;SDS011;4736;52.508;13.422;2023-03-01T15:19:50;5.10;;;4.70;;
9392;SDS011;4736;52.508;13.422;2023-03-01T15:22:55;5.00;;;4.53;;
9392;SDS011;4736;52.508;13.422;2023-03-01T15:25:59;4.67;;;4.43;;
9392;SDS011;4736;52.508;13.422;2023-03-01T15:29:02;4.67;;;4.30;;
9392;SDS011;4736;52.508;13.422;2023-03-01T15:32:06;4.33;;;4.13;;
9392;SDS011;4736;52.508;13.422;2023-03-01T15:35:38;4.10;;;3.90;;
9392;SDS011;4736;52.508;13.422;2023-03-01T15:38:52;4.77;;;4.53;;
9392;SDS011;4736;52.508;13.422;2023-03-01T15:41:56;4.40;;;4.20;;
9392;SDS011;4736;52.508;13.422;2023-03-01T15:45:07;4.67;;;4.47;;
9392;SDS011;4736;52.508;13.422;2023-03-01T15:48:14;4.77;;;4.47;;
9392;SDS011;4736;52.508;13.422;2023-03-01T15:51:22;4.30;;;4.10;;
9392;SDS011;4736;52.508;13.422;2023-03-01T15:54:32;4.77;;;4.43;;
9392;SDS011;4736;52.508;13.422;2023-03-01T15:57:35;5.10;;;4.63;;
9392;SDS011;4736;52.508;13.422;2023-03-01T16:00:38;4.90;;;4.60;;
9392;SDS011;4736;52.508;13.422;2023-03-01T16:03:59;4.30;;;4.20;;
9392;SDS011;4736;52.508;13.422;2023-03-01T16:07:02;4.87;;;4.40;;
9392;SDS011;4736;52.508;13.422;2023-03-01T16:10:07;4.60;;;4.20;;
9392;SDS011;4736;52.508;13.422;2023-03-01T16:13:11;5.60;;;5.30;;
9392;SDS011;4736;52.508;13.422;2023-03-01T16:16:14;5.30;;;4.80;;
9392;SDS011;4736;52.508;13.422;2023-03-01T16:19:18;6.20;;;5.70;;
9392;SDS011;4736;52.508;13.422;2023-03-01T16:22:21;5.00;;;4.80;;
9392;SDS011;4736;52.508;13.422;2023-03-01T16:25:28;5.50;;;5.10;;
9392;SDS011;4736;52.508;13.422;2023-03-01T16:28:31;5.37;;;5.00;;
9392;SDS011;4736;52.508;13.422;2023-03-01T16:31:34;5.23;;;4.80;;
9392;SDS011;4736;52.508;13.422;2023-03-01T16:34:38;5.40;;;4.93;;
9392;SDS011;4736;52.508;13.422;2023-03-01T16:37:41;5.20;;;4.90;;
9392;SDS011;4736;52.508;13.422;2023-03-01T16:40:47;4.57;;;4.37;;
9392;SDS011;4736;52.508;13.422;2023-03-01T16:43:53;4.87;;;4.47;;
9392;SDS011;4736;52.508;13.422;2023-03-01T16:46:56;4.90;;;4.60;;
9392;SDS011;4736;52.508;13.422;2023-03-01T16:49:59;5.60;;;5.30;;
9392;SDS011;4736;52.508;13.422;2023-03-01T16:53:02;6.10;;;5.73;;
9392;SDS011;4736;52.508;13.422;2023-03-01T16:56:08;6.37;;;6.07;;
9392;SDS011;4736;52.508;13.422;2023-03-01T16:59:12;6.17;;;5.77;;
9392;SDS011;4736;52.508;13.422;2023-03-01T17:02:15;6.20;;;5.70;;
9392;SDS011;4736;52.508;13.422;2023-03-01T17:05:21;6.50;;;6.10;;
9392;SDS011;4736;52.508;13.422;2023-03-01T17:08:25;8.03;;;7.13;;
9392;SDS011;4736;52.508;13.422;2023-03-01T17:11:30;7.17;;;6.67;;
9392;SDS011;4736;52.508;13.422;2023-03-01T17:14:34;6.67;;;6.20;;
9392;SDS011;4736;52.508;13.422;2023-03-01T17:17:38;7.00;;;6.60;;
9392;SDS011;4736;52.508;13.422;2023-03-01T17:20:41;7.40;;;6.90;;
9392;SDS011;4736;52.508;13.422;2023-03-01T17:23:45;6.93;;;6.20;;
9392;SDS011;4736;52.508;13.422;2023-03-01T17:26:52;7.90;;;7.20;;
9392;SDS011;4736;52.508;13.422;2023-03-01T17:29:55;6.33;;;6.07;;
9392;SDS011;4736;52.508;13.422;2023-03-01T17:32:58;5.47;;;5.17;;
9392;SDS011;4736;52.508;13.422;2023-03-01T17:36:01;5.50;;;5.17;;
9392;SDS011;4736;52.508;13.422;2023-03-01T17:39:04;4.97;;;4.77;;
9392;SDS011;4736;52.508;13.422;2023-03-01T17:42:09;5.80;;;5.50;;
9392;SDS011;4736;52.508;13.422;2023-03-01T17:45:12;6.00;;;5.60;;
9392;SDS011;4736;52.508;13.422;2023-03-01T17:48:15;5.47;;;5.17;;
9392;SDS011;4736;52.508;13.422;2023-03-01T17:51:19;5.87;;;5.57;;
9392;SDS011;4736;52.508;13.422;2023-03-01T17:54:22;5.87;;;5.53;;
9392;SDS011;4736;52.508;13.422;2023-03-01T17:57:27;5.87;;;5.43;;
9392;SDS011;4736;52.508;13.422;2023-03-01T18:00:30;8.97;;;7.97;;
9392;SDS011;4736;52.508;13.422;2023-03-01T18:03:34;9.67;;;7.60;;
9392;SDS011;4736;52.508;13.422;2023-03-01T18:06:37;9.40;;;7.80;;
9392;SDS011;4736;52.508;13.422;2023-03-01T18:09:42;7.63;;;6.93;;
9392;SDS011;4736;52.508;13.422;2023-03-01T18:12:46;9.77;;;6.97;;
9392;SDS011;4736;52.508;13.422;2023-03-01T18:15:49;7.30;;;6.60;;
9392;SDS011;4736;52.508;13.422;2023-03-01T18:18:53;8.67;;;7.33;;
9392;SDS011;4736;52.508;13.422;2023-03-01T18:21:57;8.73;;;7.67;;
9392;SDS011;4736;52.508;13.422;2023-03-01T18:25:00;11.40;;;8.80;;
9392;SDS011;4736;52.508;13.422;2023-03-01T18:28:05;8.60;;;7.70;;
9392;SDS011;4736;52.508;13.422;2023-03-01T18:31:08;9.97;;;6.63;;
9392;SDS011;4736;52.508;13.422;2023-03-01T18:34:12;7.57;;;6.87;;
9392;SDS011;4736;52.508;13.422;2023-03-01T18:37:15;8.03;;;7.27;;
9392;SDS011;4736;52.508;13.422;2023-03-01T18:40:18;8.20;;;7.40;;
9392;SDS011;4736;52.508;13.422;2023-03-01T18:43:23;9.57;;;7.53;;
9392;SDS011;4736;52.508;13.422;2023-03-01T18:46:29;8.93;;;8.10;;
9392;SDS011;4736;52.508;13.422;2023-03-01T18:49:34;9.53;;;7.93;;
9392;SDS011;4736;52.508;13.422;2023-03-01T18:52:38;8.37;;;7.63;;
9392;SDS011;4736;52.508;13.422;2023-03-01T18:55:41;8.43;;;7.63;;
9392;SDS011;4736;52.508;13.422;2023-03-01T18:58:45;13.40;;;9.23;;